Time;durP1;ratioP1;P1;durP2;ratioP2;P2;SDS_P1;SDS_P2;PMS_P1;PMS_P2;Temp;Humidity;BMP_temperature;BMP_pressure;BME280_temperature;BME280_humidity;BME280_pressure;Samples;Min_cycle;Max_cycle;Signal;HPM_P1;HPM_P2
2020/12/29 00:01:43;;;;;;;3.63;2.03;;;2.60;76.30;;;;;;5005795;28;20080;-70
2020/12/29 00:04:10;;;;;;;3.28;1.95;;;2.50;76.30;;;;;;5006413;28;20106;-71
2020/12/29 00:07:03;;;;;;;3.85;2.00;;;2.40;76.20;;;;;;5002713;28;20038;-71
2020/12/29 00:09:28;;;;;;;6.53;2.17;;;2.40;76.00;;;;;;5015907;28;20034;-71
2020/12/29 00:11:54;;;;;;;4.07;1.92;;;2.50;75.50;;;;;;5004009;28;20149;-71
2020/12/29 00:14:20;;;;;;;3.47;1.80;;;2.50;75.60;;;;;;5002524;28;20049;-71
2020/12/29 00:16:45;;;;;;;4.32;2.00;;;2.50;74.80;;;;;;5002615;28;20352;-70
2020/12/29 00:19:12;;;;;;;4.32;2.00;;;2.50;74.70;;;;;;5005645;28;20026;-71
2020/12/29 00:21:38;;;;;;;4.30;1.67;;;2.50;74.90;;;;;;5003143;28;20054;-71
2020/12/29 00:24:03;;;;;;;2.90;1.73;;;2.40;75.10;;;;;;5003885;28;20260;-71
2020/12/29 00:26:29;;;;;;;4.43;1.80;;;2.40;75.70;;;;;;5002587;28;20068;-71
2020/12/29 00:28:55;;;;;;;5.00;2.03;;;2.50;75.50;;;;;;5003390;28;20240;-70
2020/12/29 00:31:21;;;;;;;4.03;1.77;;;2.50;74.80;;;;;;5004975;28;20060;-70
2020/12/29 00:33:47;;;;;;;4.30;1.90;;;2.40;74.60;;;;;;5002956;28;20034;-71
2020/12/29 00:36:12;;;;;;;3.45;1.95;;;2.50;75.10;;;;;;5002774;28;20113;-71
2020/12/29 00:38:38;;;;;;;4.15;1.70;;;2.50;75.10;;;;;;5003353;28;20042;-71
2020/12/29 00:41:07;;;;;;;2.60;1.67;;;2.40;74.90;;;;;;5003241;28;20333;-71
2020/12/29 00:43:33;;;;;;;4.32;1.67;;;2.60;74.90;;;;;;5002551;28;20381;-69
2020/12/29 00:46:03;;;;;;;4.63;1.70;;;2.60;74.30;;;;;;5005201;28;20090;-71
2020/12/29 00:48:28;;;;;;;2.78;1.60;;;2.60;74.00;;;;;;5002388;28;20042;-71
2020/12/29 00:50:54;;;;;;;2.75;1.70;;;2.60;73.40;;;;;;5003085;28;20367;-71
2020/12/29 00:53:19;;;;;;;2.55;1.40;;;2.50;73.40;;;;;;5003173;28;20046;-70
2020/12/29 00:55:45;;;;;;;2.92;1.50;;;2.40;73.40;;;;;;5003002;28;20038;-71
2020/12/29 00:58:10;;;;;;;3.60;1.70;;;2.50;73.80;;;;;;5006278;28;20030;-71
2020/12/29 01:00:36;;;;;;;1.98;1.27;;;2.60;73.70;;;;;;5003089;28;20046;-70
2020/12/29 01:03:01;;;;;;;5.13;1.75;;;2.70;74.00;;;;;;5003069;28;20042;-71
2020/12/29 01:05:27;;;;;;;3.33;1.60;;;2.70;73.90;;;;;;5002936;28;20287;-70
2020/12/29 01:07:52;;;;;;;3.63;1.73;;;2.80;73.10;;;;;;5001828;28;20046;-70
2020/12/29 01:10:18;;;;;;;3.53;1.50;;;2.80;72.30;;;;;;5005982;28;20364;-71
2020/12/29 01:12:43;;;;;;;3.00;1.40;;;2.80;72.40;;;;;;5002776;28;20031;-71
2020/12/29 01:15:09;;;;;;;3.25;1.60;;;2.80;72.10;;;;;;5002520;28;20046;-71
2020/12/29 01:17:34;;;;;;;2.55;1.30;;;2.90;71.90;;;;;;5002613;28;20253;-71
2020/12/29 01:20:00;;;;;;;3.25;1.52;;;2.90;72.50;;;;;;5002626;28;20093;-71
2020/12/29 01:22:25;;;;;;;2.97;1.20;;;2.80;72.20;;;;;;5003900;28;20352;-70
2020/12/29 01:24:51;;;;;;;1.90;1.10;;;2.90;71.60;;;;;;5004282;28;20261;-71
2020/12/29 01:27:17;;;;;;;2.08;1.20;;;2.90;71.60;;;;;;5002665;28;20325;-71
2020/12/29 01:29:42;;;;;;;2.03;1.42;;;2.80;72.80;;;;;;4984928;28;20034;-71
2020/12/29 01:32:08;;;;;;;3.92;1.35;;;2.80;73.30;;;;;;5002300;28;20195;-71
2020/12/29 01:34:33;;;;;;;2.78;1.40;;;2.70;74.30;;;;;;5001523;28;20086;-70
2020/12/29 01:36:59;;;;;;;2.38;1.27;;;2.70;74.20;;;;;;5005575;28;20030;-71
2020/12/29 01:39:24;;;;;;;4.45;1.30;;;2.70;74.60;;;;;;5002276;28;20333;-71
2020/12/29 01:41:50;;;;;;;1.70;1.10;;;2.60;74.50;;;;;;4984711;28;20053;-71
2020/12/29 01:44:19;;;;;;;3.90;1.50;;;2.60;74.60;;;;;;5002377;28;20030;-71
2020/12/29 01:46:45;;;;;;;3.00;1.48;;;2.60;74.70;;;;;;5001045;28;20237;-70
2020/12/29 01:49:11;;;;;;;1.95;1.40;;;2.50;74.50;;;;;;5005110;28;20116;-71
2020/12/29 01:51:37;;;;;;;2.97;1.25;;;2.50;74.60;;;;;;5001114;28;20038;-71
2020/12/29 01:54:03;;;;;;;1.90;1.10;;;2.50;74.50;;;;;;5002199;28;20042;-72
2020/12/29 01:56:29;;;;;;;2.33;1.30;;;2.60;74.60;;;;;;5001918;28;20057;-71
2020/12/29 01:58:55;;;;;;;2.83;1.50;;;2.50;74.60;;;;;;5000766;28;20030;-71
2020/12/29 02:01:20;;;;;;;3.28;1.55;;;2.40;74.30;;;;;;5004311;28;20332;-71
2020/12/29 02:03:46;;;;;;;3.53;1.50;;;2.40;74.50;;;;;;5000851;28;20069;-71
2020/12/29 02:06:11;;;;;;;1.50;1.05;;;2.40;74.60;;;;;;5000892;28;20041;-71
2020/12/29 02:08:37;;;;;;;2.80;1.20;;;2.40;74.20;;;;;;5001902;28;20209;-71
2020/12/29 02:11:03;;;;;;;1.95;1.10;;;2.40;74.00;;;;;;5000528;28;20034;-71
2020/12/29 02:13:28;;;;;;;2.28;1.27;;;2.40;74.30;;;;;;5003311;28;20049;-70
2020/12/29 02:15:54;;;;;;;4.20;0.95;;;2.40;74.30;;;;;;4986415;28;20049;-71
2020/12/29 02:18:19;;;;;;;2.53;1.10;;;2.40;74.00;;;;;;5000832;28;20042;-71
2020/12/29 02:20:45;;;;;;;1.65;0.90;;;2.40;74.30;;;;;;5001588;28;20298;-71
2020/12/29 02:23:10;;;;;;;1.25;0.85;;;2.50;74.30;;;;;;5000635;28;20084;-71
2020/12/29 02:25:36;;;;;;;1.58;0.90;;;2.50;74.20;;;;;;5000943;28;20261;-70
2020/12/29 02:28:02;;;;;;;1.23;0.70;;;2.60;73.90;;;;;;5004113;28;20030;-71
2020/12/29 02:30:27;;;;;;;1.90;1.13;;;2.60;73.60;;;;;;5000775;28;20042;-71
2020/12/29 02:32:53;;;;;;;1.75;0.95;;;2.60;73.80;;;;;;5001795;28;20094;-70
2020/12/29 02:35:18;;;;;;;1.27;0.70;;;2.60;74.50;;;;;;5001509;28;20089;-71
2020/12/29 02:37:44;;;;;;;1.52;1.08;;;2.50;74.50;;;;;;5001620;28;20037;-70
2020/12/29 02:40:10;;;;;;;1.65;1.02;;;2.50;74.30;;;;;;5004757;28;20077;-71
2020/12/29 02:42:35;;;;;;;1.60;0.95;;;2.50;74.60;;;;;;5000601;28;20203;-71
2020/12/29 02:45:01;;;;;;;1.20;0.85;;;2.50;74.30;;;;;;5001576;28;20042;-71
2020/12/29 02:47:26;;;;;;;1.60;1.00;;;2.40;74.20;;;;;;5001461;28;20044;-71
2020/12/29 02:49:52;;;;;;;2.05;1.02;;;2.40;74.40;;;;;;5001428;28;20054;-70
2020/12/29 02:52:18;;;;;;;1.80;0.90;;;2.50;75.00;;;;;;5004372;28;20054;-71
2020/12/29 02:54:43;;;;;;;2.03;1.00;;;2.50;75.20;;;;;;5004530;28;20030;-71
2020/12/29 02:57:09;;;;;;;2.22;1.02;;;2.50;75.10;;;;;;5005536;28;20038;-71
2020/12/29 02:59:34;;;;;;;2.03;1.02;;;2.50;75.00;;;;;;5003954;28;20034;-71
2020/12/29 03:02:00;;;;;;;0.70;0.65;;;2.50;75.10;;;;;;5005212;28;20242;-70
2020/12/29 03:04:25;;;;;;;1.50;0.82;;;2.50;75.60;;;;;;5006806;28;20218;-70
2020/12/29 03:06:51;;;;;;;1.58;0.70;;;2.50;75.80;;;;;;5006721;28;20396;-71
2020/12/29 03:09:16;;;;;;;1.33;0.77;;;2.60;75.60;;;;;;5005223;28;20038;-71
2020/12/29 03:11:43;;;;;;;1.10;0.65;;;2.50;75.50;;;;;;5003497;28;20053;-71
2020/12/29 03:14:08;;;;;;;1.42;0.70;;;2.40;76.20;;;;;;5003633;28;20345;-70
2020/12/29 03:16:34;;;;;;;1.08;0.70;;;2.40;76.00;;;;;;5005022;28;20034;-70
2020/12/29 03:19:03;;;;;;;1.33;0.73;;;2.30;76.50;;;;;;5008161;28;20039;-70
2020/12/29 03:21:29;;;;;;;1.45;0.70;;;2.50;76.70;;;;;;5005119;28;20065;-71
2020/12/29 03:23:54;;;;;;;1.08;0.70;;;2.50;76.00;;;;;;5004701;28;20038;-71
2020/12/29 03:26:20;;;;;;;2.03;0.73;;;2.40;76.40;;;;;;5003604;28;20030;-71
2020/12/29 03:28:45;;;;;;;1.13;0.70;;;2.50;76.90;;;;;;4987274;28;20038;-70
2020/12/29 03:31:11;;;;;;;1.30;0.70;;;2.60;76.40;;;;;;5007965;28;20321;-71
2020/12/29 03:33:37;;;;;;;0.70;0.57;;;2.70;75.70;;;;;;5003871;28;20102;-71
2020/12/29 03:36:02;;;;;;;1.75;0.70;;;2.60;75.10;;;;;;5003428;28;20081;-71
2020/12/29 03:38:28;;;;;;;1.10;0.68;;;2.60;75.00;;;;;;5003461;28;20042;-71
2020/12/29 03:40:54;;;;;;;1.40;0.73;;;2.70;75.30;;;;;;5004398;28;20046;-70
2020/12/29 03:43:19;;;;;;;1.60;0.80;;;2.70;75.30;;;;;;5006909;28;20075;-71
2020/12/29 03:45:45;;;;;;;0.85;0.50;;;2.70;74.90;;;;;;5003699;28;20042;-71
2020/12/29 03:48:16;;;;;;;1.27;0.60;;;2.70;75.30;;;;;;5002963;28;20042;-71
2020/12/29 03:50:42;;;;;;;1.27;0.70;;;2.60;75.20;;;;;;5003322;28;20262;-71
2020/12/29 03:53:07;;;;;;;1.33;0.68;;;2.60;75.20;;;;;;5003105;28;20034;-70
2020/12/29 03:55:33;;;;;;;1.42;0.60;;;2.70;75.00;;;;;;5003410;28;20035;-70
2020/12/29 03:57:59;;;;;;;2.22;0.85;;;2.60;75.00;;;;;;5006417;28;20336;-71
2020/12/29 04:00:25;;;;;;;1.23;0.60;;;2.50;75.00;;;;;;5004362;28;20038;-71
2020/12/29 04:02:50;;;;;;;0.93;0.60;;;2.50;74.40;;;;;;4986836;28;20325;-71
2020/12/29 04:05:16;;;;;;;1.52;0.80;;;2.40;74.70;;;;;;5002766;28;20037;-70
2020/12/29 04:07:42;;;;;;;1.50;0.50;;;2.40;75.10;;;;;;5003754;28;20046;-70
2020/12/29 04:10:07;;;;;;;1.75;0.70;;;2.40;74.60;;;;;;5005822;28;20049;-71
2020/12/29 04:12:33;;;;;;;0.80;0.60;;;2.40;74.50;;;;;;5004289;28;20035;-71
2020/12/29 04:14:58;;;;;;;1.42;0.70;;;2.40;74.50;;;;;;5002796;28;20396;-70
2020/12/29 04:17:24;;;;;;;1.30;0.70;;;2.30;74.70;;;;;;5003634;28;20044;-71
2020/12/29 04:19:50;;;;;;;1.13;0.60;;;2.30;74.70;;;;;;5002453;28;20050;-70
2020/12/29 04:22:15;;;;;;;1.13;0.70;;;2.20;74.50;;;;;;5006680;28;20300;-71
2020/12/29 04:24:41;;;;;;;0.98;0.60;;;2.30;74.50;;;;;;5003863;28;20034;-70
2020/12/29 04:27:06;;;;;;;1.30;0.63;;;2.20;75.00;;;;;;5003778;28;20039;-70
2020/12/29 04:29:32;;;;;;;0.77;0.60;;;2.30;74.70;;;;;;5002502;28;20041;-70
2020/12/29 04:31:57;;;;;;;1.52;0.60;;;2.30;74.70;;;;;;5003648;28;20275;-71
2020/12/29 04:34:23;;;;;;;1.20;0.77;;;2.30;74.50;;;;;;5004904;28;20030;-70
2020/12/29 04:36:53;;;;;;;1.05;0.73;;;2.40;74.90;;;;;;5005052;28;20077;-71
2020/12/29 04:39:19;;;;;;;0.50;0.50;;;2.40;74.40;;;;;;5003293;28;20038;-71
2020/12/29 04:41:44;;;;;;;2.15;0.60;;;2.40;74.50;;;;;;5002078;28;20050;-70
2020/12/29 04:44:10;;;;;;;2.78;0.60;;;2.50;74.80;;;;;;5002049;28;20045;-71
2020/12/29 04:46:35;;;;;;;1.40;0.70;;;2.50;74.40;;;;;;5003204;28;20261;-70
2020/12/29 04:49:01;;;;;;;2.53;0.65;;;2.50;74.00;;;;;;5005217;28;20225;-71
2020/12/29 04:51:28;;;;;;;1.00;0.70;;;2.50;74.60;;;;;;5003492;28;20038;-71
2020/12/29 04:53:57;;;;;;;2.05;0.90;;;2.60;74.10;;;;;;4986219;28;20041;-71
2020/12/29 04:56:31;;;;;;;1.17;0.70;;;2.50;74.20;;;;;;5001892;28;20048;-71
2020/12/29 04:58:59;;;;;;;3.00;0.80;;;2.50;74.20;;;;;;5003302;28;20380;-71
2020/12/29 05:01:24;;;;;;;1.40;0.80;;;2.30;74.20;;;;;;5004688;28;20096;-70
2020/12/29 05:03:50;;;;;;;1.73;0.90;;;2.30;74.50;;;;;;5005072;28;20089;-70
2020/12/29 05:06:15;;;;;;;2.40;0.93;;;2.10;74.80;;;;;;5003194;28;20031;-71
2020/12/29 05:08:45;;;;;;;1.67;0.80;;;2.20;74.80;;;;;;5001823;28;20329;-71
2020/12/29 05:11:11;;;;;;;1.85;0.90;;;2.30;74.70;;;;;;5002631;28;20035;-70
2020/12/29 05:13:36;;;;;;;2.40;0.85;;;2.40;74.50;;;;;;5002547;28;20396;-70
2020/12/29 05:16:02;;;;;;;1.70;1.00;;;2.40;74.80;;;;;;5004343;28;20034;-71
2020/12/29 05:18:28;;;;;;;3.67;2.00;;;2.20;74.70;;;;;;5003026;28;20058;-71
2020/12/29 05:20:54;;;;;;;1.95;1.00;;;2.20;75.00;;;;;;5001267;28;20096;-70
2020/12/29 05:23:20;;;;;;;3.08;1.20;;;2.10;75.60;;;;;;5002502;28;20038;-70
2020/12/29 05:25:46;;;;;;;1.73;0.95;;;2.00;75.30;;;;;;4985156;28;20041;-70
2020/12/29 05:28:12;;;;;;;1.23;0.80;;;2.10;75.40;;;;;;5004454;28;20086;-70
2020/12/29 05:30:38;;;;;;;2.08;0.93;;;2.10;75.20;;;;;;5002787;28;20249;-70
2020/12/29 05:33:10;;;;;;;1.17;0.80;;;2.20;75.10;;;;;;5001597;28;20041;-70
2020/12/29 05:35:35;;;;;;;1.73;0.90;;;2.20;74.90;;;;;;5001236;28;20057;-71
2020/12/29 05:38:01;;;;;;;1.50;0.77;;;2.10;75.00;;;;;;5000891;28;20054;-70
2020/12/29 05:40:27;;;;;;;1.27;0.90;;;2.20;75.00;;;;;;5002837;28;20204;-70
2020/12/29 05:42:57;;;;;;;1.27;0.90;;;2.10;74.70;;;;;;5002889;28;20099;-71
2020/12/29 05:45:30;;;;;;;2.00;0.88;;;2.10;74.90;;;;;;5001230;28;20058;-71
2020/12/29 05:47:56;;;;;;;1.48;0.90;;;2.00;74.80;;;;;;5001146;28;20038;-71
2020/12/29 05:50:22;;;;;;;1.23;0.75;;;2.10;74.80;;;;;;5000966;28;20081;-70
2020/12/29 05:52:53;;;;;;;1.15;0.80;;;2.00;74.20;;;;;;5001833;28;20034;-70
2020/12/29 05:55:22;;;;;;;2.35;0.93;;;2.10;74.50;;;;;;5005071;28;20073;-70
2020/12/29 05:57:58;;;;;;;1.15;0.90;;;2.20;74.30;;;;;;5002822;28;20080;-71
2020/12/29 06:00:25;;;;;;;16.15;1.20;;;2.20;74.10;;;;;;5002044;28;20041;-71
2020/12/29 06:02:52;;;;;;;1.38;0.88;;;2.20;74.00;;;;;;5001920;28;20333;-70
2020/12/29 06:05:18;;;;;;;1.83;0.93;;;2.20;74.10;;;;;;5000676;28;20343;-70
2020/12/29 06:07:43;;;;;;;1.92;1.00;;;2.10;73.90;;;;;;5000574;28;20076;-70
2020/12/29 06:10:09;;;;;;;3.95;1.08;;;2.10;74.10;;;;;;5003976;28;20069;-70
2020/12/29 06:12:35;;;;;;;4.20;0.95;;;2.10;73.60;;;;;;5000958;28;20102;-70
2020/12/29 06:15:00;;;;;;;2.22;0.88;;;2.10;73.30;;;;;;5000395;28;20061;-70
2020/12/29 06:17:32;;;;;;;1.40;0.85;;;2.10;73.50;;;;;;5000717;28;20325;-70
2020/12/29 06:20:04;;;;;;;1.90;0.88;;;2.20;73.60;;;;;;5001795;28;20031;-71
2020/12/29 06:22:30;;;;;;;1.17;0.75;;;2.20;73.40;;;;;;5003201;28;20341;-70
2020/12/29 06:24:56;;;;;;;2.72;0.90;;;2.20;72.80;;;;;;5003546;28;20029;-70
2020/12/29 06:27:22;;;;;;;1.30;0.80;;;2.20;73.10;;;;;;5000250;28;20349;-70
2020/12/29 06:29:47;;;;;;;1.92;1.05;;;2.20;72.90;;;;;;5000306;28;20081;-71
2020/12/29 06:32:19;;;;;;;2.40;1.20;;;2.10;72.40;;;;;;5001511;28;20073;-70
2020/12/29 06:34:45;;;;;;;1.60;1.08;;;2.10;73.10;;;;;;5000532;28;20093;-70
2020/12/29 06:37:22;;;;;;;2.33;1.17;;;2.00;73.00;;;;;;5004790;28;20331;-71
2020/12/29 06:40:03;;;;;;;3.42;1.23;;;1.90;73.20;;;;;;5002346;28;20041;-71
2020/12/29 06:42:29;;;;;;;2.13;1.20;;;1.90;73.00;;;;;;5000618;28;20105;-70
2020/12/29 06:44:55;;;;;;;2.40;1.15;;;2.00;72.80;;;;;;5000514;28;20042;-71
2020/12/29 06:47:22;;;;;;;2.78;1.13;;;2.00;72.60;;;;;;5000311;28;20042;-71
2020/12/29 06:49:48;;;;;;;2.05;0.80;;;2.10;72.80;;;;;;4984396;28;20053;-71
2020/12/29 06:52:29;;;;;;;3.17;1.30;;;2.10;72.80;;;;;;5003522;28;20038;-71
2020/12/29 06:54:59;;;;;;;12.27;1.35;;;2.10;72.00;;;;;;5000791;28;20318;-72
2020/12/29 06:57:34;;;;;;;8.20;1.10;;;2.00;71.90;;;;;;5001163;28;20322;-72
2020/12/29 07:00:01;;;;;;;3.47;1.20;;;1.90;71.70;;;;;;5000567;28;20085;-72
2020/12/29 07:02:34;;;;;;;14.23;1.45;;;1.90;71.60;;;;;;5000143;28;20053;-71
2020/12/29 07:05:00;;;;;;;3.35;1.13;;;1.90;71.60;;;;;;5000230;28;20038;-71
2020/12/29 07:07:31;;;;;;;1.65;1.00;;;1.70;72.10;;;;;;5001743;28;20045;-71
2020/12/29 07:10:00;;;;;;;;;;;1.90;72.40;;;;;;5003295;28;20042;-72
2020/12/29 07:12:29;;;;;;;3.38;1.10;;;1.90;71.80;;;;;;4999672;28;20213;-71
2020/12/29 07:14:54;;;;;;;3.10;1.02;;;1.90;71.60;;;;;;4999511;28;20097;-72
2020/12/29 07:17:24;;;;;;;2.50;1.10;;;1.80;71.60;;;;;;5000995;28;20081;-72
2020/12/29 07:19:49;;;;;;;2.50;1.27;;;1.90;71.70;;;;;;4999783;28;20093;-72
2020/12/29 07:22:16;;;;;;;1.40;0.85;;;1.90;72.00;;;;;;5004097;28;20042;-71
2020/12/29 07:24:42;;;;;;;2.90;0.90;;;1.70;71.90;;;;;;5000145;28;20325;-71
2020/12/29 07:27:07;;;;;;;2.90;1.00;;;1.40;72.30;;;;;;4999973;28;20041;-72
2020/12/29 07:29:33;;;;;;;2.05;1.10;;;1.50;72.50;;;;;;4999873;28;20038;-71
2020/12/29 07:31:59;;;;;;;1.85;1.08;;;1.70;72.80;;;;;;5001107;28;20142;-72
2020/12/29 07:34:24;;;;;;;1.80;1.00;;;1.80;72.70;;;;;;5001272;28;20356;-72
2020/12/29 07:36:50;;;;;;;4.45;1.00;;;1.70;72.80;;;;;;4985441;28;20034;-72
2020/12/29 07:39:16;;;;;;;2.92;1.10;;;1.80;72.60;;;;;;5000394;28;20038;-72
2020/12/29 07:41:42;;;;;;;6.20;1.38;;;1.80;72.70;;;;;;5004588;28;20057;-71
2020/12/29 07:44:08;;;;;;;2.05;1.10;;;1.80;72.80;;;;;;4987371;28;20038;-72
2020/12/29 07:46:33;;;;;;;2.05;1.13;;;1.80;72.40;;;;;;5004289;28;20034;-71
2020/12/29 07:48:59;;;;;;;1.77;1.17;;;1.70;72.70;;;;;;5007391;28;20030;-72
2020/12/29 07:51:25;;;;;;;2.78;1.10;;;1.70;72.30;;;;;;5004471;28;20039;-72
2020/12/29 07:53:51;;;;;;;1.60;1.00;;;1.70;72.40;;;;;;5004110;28;20077;-72
2020/12/29 07:56:17;;;;;;;1.48;1.00;;;1.70;72.50;;;;;;5004590;28;20245;-72
2020/12/29 07:58:43;;;;;;;1.98;1.10;;;1.80;72.20;;;;;;5002830;28;20045;-71
2020/12/29 08:01:08;;;;;;;2.00;0.90;;;1.90;72.30;;;;;;5005917;28;20322;-71
2020/12/29 08:03:34;;;;;;;1.92;1.08;;;2.00;71.90;;;;;;5004360;28;20094;-71
2020/12/29 08:06:00;;;;;;;2.88;1.17;;;2.10;71.30;;;;;;5003231;28;20038;-71
2020/12/29 08:08:25;;;;;;;2.67;1.00;;;2.10;70.80;;;;;;5003932;28;20221;-72
2020/12/29 08:10:53;;;;;;;2.35;1.27;;;2.40;70.20;;;;;;5004868;28;20229;-71
2020/12/29 08:13:22;;;;;;;2.78;1.30;;;2.60;69.60;;;;;;5007650;28;20051;-71
2020/12/29 08:15:49;;;;;;;2.45;1.52;;;2.90;69.40;;;;;;5003632;28;20359;-72
2020/12/29 08:18:16;;;;;;;2.20;1.40;;;3.10;68.40;;;;;;5002417;28;20090;-71
2020/12/29 08:20:45;;;;;;;3.88;1.52;;;3.10;68.00;;;;;;5002174;28;20234;-70
2020/12/29 08:23:12;;;;;;;4.13;1.42;;;3.20;68.70;;;;;;5003733;28;20030;-71
2020/12/29 08:25:37;;;;;;;2.88;1.20;;;3.30;67.50;;;;;;5003432;28;20376;-68
2020/12/29 08:28:03;;;;;;;2.17;1.38;;;3.40;67.40;;;;;;5005817;28;20023;-70
2020/12/29 08:30:29;;;;;;;3.17;1.30;;;3.60;67.40;;;;;;5002384;28;20035;-70
2020/12/29 08:32:54;;;;;;;2.95;1.40;;;3.50;66.80;;;;;;5002344;28;20405;-69
2020/12/29 08:35:20;;;;;;;3.42;1.27;;;3.70;67.70;;;;;;5002203;28;20026;-72
2020/12/29 08:38:09;;;;;;;1.92;1.20;;;3.70;67.20;;;;;;4985696;28;20073;-70
2020/12/29 08:40:36;;;;;;;4.57;1.30;;;3.90;66.30;;;;;;5002115;28;20034;-69
2020/12/29 08:43:01;;;;;;;2.28;1.20;;;4.00;67.20;;;;;;5005356;28;20081;-70
2020/12/29 08:45:27;;;;;;;2.70;1.10;;;4.30;65.70;;;;;;5003422;28;20038;-68
2020/12/29 08:47:56;;;;;;;1.90;1.10;;;4.30;63.40;;;;;;5002073;28;20090;-71
2020/12/29 08:50:33;;;;;;;4.03;1.52;;;4.20;65.40;;;;;;5003047;28;20053;-72
2020/12/29 08:53:11;;;;;;;3.13;1.10;;;4.10;65.40;;;;;;5001587;28;20072;-68
2020/12/29 08:55:39;;;;;;;2.28;0.93;;;4.20;65.80;;;;;;5001949;28;20035;-72
2020/12/29 08:58:05;;;;;;;2.28;1.30;;;4.40;64.60;;;;;;5005304;28;20030;-71
2020/12/29 09:00:30;;;;;;;2.95;1.00;;;4.40;63.90;;;;;;5002488;28;20065;-71
2020/12/29 09:02:56;;;;;;;1.52;0.80;;;4.40;64.30;;;;;;5001862;28;20252;-69
2020/12/29 09:05:27;;;;;;;1.67;1.00;;;4.60;64.70;;;;;;5001579;28;20030;-69
2020/12/29 09:07:53;;;;;;;1.80;1.05;;;4.70;63.50;;;;;;5001478;28;20720;-71
2020/12/29 09:10:19;;;;;;;2.60;0.90;;;4.60;63.70;;;;;;5004789;28;20037;-70
2020/12/29 09:12:44;;;;;;;3.38;0.95;;;4.50;63.50;;;;;;5003001;28;20217;-69
2020/12/29 09:15:12;;;;;;;2.50;0.90;;;4.60;63.60;;;;;;4985550;28;20054;-69
2020/12/29 09:17:40;;;;;;;1.38;0.80;;;5.00;62.20;;;;;;5002160;28;20042;-69
2020/12/29 09:20:29;;;;;;;2.15;0.77;;;5.40;60.80;;;;;;5002489;28;20186;-68
2020/12/29 09:23:03;;;;;;;3.03;0.90;;;6.00;59.80;;;;;;5002195;28;20046;-69
2020/12/29 09:25:30;;;;;;;1.02;0.70;;;5.90;59.50;;;;;;5003845;28;20034;-69
2020/12/29 09:28:18;;;;;;;1.75;0.90;;;5.90;59.80;;;;;;5004116;28;20038;-69
2020/12/29 09:30:47;;;;;;;1.00;0.70;;;6.00;58.20;;;;;;5002603;28;20120;-72
2020/12/29 09:33:19;;;;;;;2.28;0.70;;;6.10;58.20;;;;;;5002484;28;20062;-70
2020/12/29 09:35:45;;;;;;;2.03;0.90;;;6.30;58.40;;;;;;5001212;28;20065;-70
2020/12/29 09:38:10;;;;;;;2.65;1.27;;;6.60;58.70;;;;;;5001833;28;20038;-69
2020/12/29 09:40:36;;;;;;;2.30;0.80;;;6.80;59.40;;;;;;5001692;28;20033;-69
2020/12/29 09:43:01;;;;;;;2.90;0.90;;;6.90;58.30;;;;;;5005756;28;20050;-72
2020/12/29 09:45:27;;;;;;;3.25;0.80;;;7.30;53.70;;;;;;5000229;28;20093;-71
2020/12/29 09:47:53;;;;;;;1.50;0.90;;;7.80;55.30;;;;;;5000945;28;20061;-71
2020/12/29 09:50:18;;;;;;;2.47;0.90;;;8.20;52.60;;;;;;5001702;28;20310;-70
2020/12/29 09:52:44;;;;;;;2.50;0.93;;;8.40;50.40;;;;;;5000639;28;20034;-70
2020/12/29 09:55:09;;;;;;;1.48;0.77;;;8.50;49.90;;;;;;4988028;28;20026;-69
2020/12/29 09:57:35;;;;;;;1.70;0.90;;;8.80;51.30;;;;;;5001978;28;20229;-68
2020/12/29 10:00:00;;;;;;;2.00;1.00;;;9.10;49.50;;;;;;4984653;28;20080;-71
2020/12/29 10:02:26;;;;;;;1.30;0.70;;;9.70;50.10;;;;;;5000092;28;20046;-69
2020/12/29 10:04:52;;;;;;;1.42;0.75;;;10.00;46.50;;;;;;5000057;28;20054;-69
2020/12/29 10:07:17;;;;;;;1.80;0.70;;;10.60;46.30;;;;;;5005119;28;20089;-71
2020/12/29 10:09:43;;;;;;;2.95;0.73;;;10.90;44.80;;;;;;5001787;28;20045;-71
2020/12/29 10:12:08;;;;;;;11.63;0.80;;;10.90;43.60;;;;;;5000431;28;20031;-71
2020/12/29 10:14:34;;;;;;;1.58;0.60;;;10.80;44.10;;;;;;5000675;28;20062;-72
2020/12/29 10:16:59;;;;;;;2.47;0.60;;;10.40;44.70;;;;;;5000380;28;20030;-71
2020/12/29 10:19:25;;;;;;;1.02;0.60;;;10.20;45.10;;;;;;5003108;28;20229;-70
2020/12/29 10:21:54;;;;;;;1.73;0.65;;;9.90;44.60;;;;;;5003485;28;20038;-71
2020/12/29 10:24:19;;;;;;;4.55;0.90;;;9.60;45.60;;;;;;5001282;28;20345;-71
2020/12/29 10:26:51;;;;;;;0.98;0.60;;;9.40;46.20;;;;;;5001607;28;20045;-71
2020/12/29 10:29:17;;;;;;;1.95;0.80;;;9.20;47.10;;;;;;5000119;28;20034;-71
2020/12/29 10:31:43;;;;;;;1.20;0.60;;;9.00;47.10;;;;;;4999976;28;20026;-72
2020/12/29 10:34:10;;;;;;;2.10;0.60;;;8.70;46.40;;;;;;5004786;28;20018;-72
2020/12/29 10:36:36;;;;;;;3.33;0.70;;;8.70;48.00;;;;;;5000610;28;20038;-72
2020/12/29 10:39:03;;;;;;;1.90;0.73;;;8.80;49.50;;;;;;5000268;28;20266;-71
2020/12/29 10:41:29;;;;;;;2.67;0.70;;;8.80;47.50;;;;;;5000331;28;20034;-71
2020/12/29 10:43:55;;;;;;;2.72;0.70;;;8.90;48.30;;;;;;5000169;28;20252;-70
2020/12/29 10:46:21;;;;;;;0.95;0.55;;;9.20;49.80;;;;;;5003666;28;20030;-70
2020/12/29 10:48:47;;;;;;;2.30;0.80;;;9.40;49.50;;;;;;5000938;28;20050;-70
2020/12/29 10:51:19;;;;;;;1.60;0.75;;;9.60;47.70;;;;;;5001113;28;20057;-70
2020/12/29 10:53:44;;;;;;;1.48;0.80;;;9.70;46.20;;;;;;5001004;28;20065;-71
2020/12/29 10:56:10;;;;;;;1.85;0.80;;;9.70;45.80;;;;;;4999933;28;20034;-69
2020/12/29 10:58:37;;;;;;;2.13;0.80;;;9.70;47.20;;;;;;5016529;28;20030;-70
2020/12/29 11:01:03;;;;;;;3.28;1.00;;;9.80;44.90;;;;;;5003645;28;20038;-70
2020/12/29 11:03:29;;;;;;;1.92;0.80;;;9.90;46.80;;;;;;5001361;28;20042;-69
2020/12/29 11:05:54;;;;;;;1.85;0.90;;;9.90;46.10;;;;;;5001035;28;20321;-69
2020/12/29 11:08:20;;;;;;;2.42;0.98;;;10.10;47.20;;;;;;5001309;28;20038;-69
2020/12/29 11:10:45;;;;;;;2.55;0.98;;;9.70;46.50;;;;;;5000940;28;20042;-68
2020/12/29 11:13:11;;;;;;;1.95;1.02;;;9.70;47.10;;;;;;5002973;28;20022;-71
2020/12/29 11:15:36;;;;;;;2.28;0.90;;;9.50;46.20;;;;;;5003822;28;20093;-72
2020/12/29 11:18:02;;;;;;;3.95;1.00;;;9.20;47.70;;;;;;5004767;28;20195;-71
2020/12/29 11:20:27;;;;;;;1.80;1.00;;;8.90;47.40;;;;;;5004597;28;20038;-70
2020/12/29 11:22:53;;;;;;;3.53;0.80;;;8.90;49.40;;;;;;5004776;28;20050;-73
2020/12/29 11:25:19;;;;;;;0.95;0.75;;;8.70;48.00;;;;;;5006765;28;20038;-69
2020/12/29 11:27:44;;;;;;;2.53;1.08;;;8.70;50.40;;;;;;5004539;28;20239;-69
2020/12/29 11:30:10;;;;;;;2.45;1.10;;;8.70;49.00;;;;;;5004920;28;20333;-68
2020/12/29 11:32:35;;;;;;;3.55;1.20;;;8.50;48.30;;;;;;5004909;28;20347;-68
2020/12/29 11:35:01;;;;;;;3.17;1.08;;;8.60;50.30;;;;;;5004270;28;20034;-69
2020/12/29 11:37:26;;;;;;;2.15;0.90;;;8.40;50.40;;;;;;5006205;28;20034;-69
2020/12/29 11:39:53;;;;;;;2.47;1.17;;;8.40;51.60;;;;;;5006420;28;20109;-68
2020/12/29 11:42:18;;;;;;;2.72;1.00;;;8.40;52.00;;;;;;5004626;28;20333;-69
2020/12/29 11:44:44;;;;;;;1.63;1.00;;;8.40;52.10;;;;;;5004303;28;20057;-68
2020/12/29 11:47:10;;;;;;;3.00;0.80;;;8.40;50.60;;;;;;5003563;28;20035;-69
2020/12/29 11:49:35;;;;;;;2.45;1.10;;;8.30;51.10;;;;;;5003924;28;20082;-69
2020/12/29 11:52:01;;;;;;;2.67;0.80;;;8.20;51.00;;;;;;5006244;28;20097;-68
2020/12/29 11:54:26;;;;;;;2.72;1.20;;;8.20;51.50;;;;;;5004526;28;20074;-68
2020/12/29 11:56:52;;;;;;;2.45;0.93;;;8.20;51.80;;;;;;5002898;28;20049;-69
2020/12/29 11:59:18;;;;;;;2.58;1.00;;;8.10;51.90;;;;;;5004154;28;20040;-69
2020/12/29 12:01:43;;;;;;;1.60;0.88;;;8.10;52.80;;;;;;5003962;28;20061;-68
2020/12/29 12:04:09;;;;;;;3.25;1.05;;;8.10;52.40;;;;;;5007020;28;20030;-69
2020/12/29 12:06:34;;;;;;;3.83;1.23;;;8.20;52.20;;;;;;5003532;28;20046;-69
2020/12/29 12:09:00;;;;;;;2.47;0.90;;;8.30;52.60;;;;;;5003861;28;20117;-68
2020/12/29 12:11:28;;;;;;;5.32;1.02;;;8.30;52.40;;;;;;5003864;28;20058;-68
2020/12/29 12:13:55;;;;;;;2.83;0.90;;;8.40;53.00;;;;;;5006314;28;20052;-69
2020/12/29 12:16:20;;;;;;;3.65;1.02;;;8.50;52.40;;;;;;5011289;28;20033;-68
2020/12/29 12:18:46;;;;;;;2.67;0.90;;;8.40;52.40;;;;;;4992710;28;20038;-68
2020/12/29 12:21:12;;;;;;;3.80;0.98;;;8.40;51.60;;;;;;5003780;28;20137;-72
2020/12/29 12:23:37;;;;;;;3.88;1.02;;;8.40;52.10;;;;;;5007571;28;20039;-69
2020/12/29 12:26:03;;;;;;;3.35;0.85;;;8.40;52.30;;;;;;5007756;28;20038;-67
2020/12/29 12:28:31;;;;;;;1.75;0.80;;;8.40;51.70;;;;;;5009024;28;20034;-66
2020/12/29 12:30:58;;;;;;;3.50;0.70;;;8.40;53.00;;;;;;4995723;28;20094;-65
2020/12/29 12:33:24;;;;;;;1.60;0.70;;;8.50;52.70;;;;;;5008697;28;20062;-66
2020/12/29 12:35:50;;;;;;;3.30;1.00;;;8.50;52.00;;;;;;5007020;28;20038;-66
2020/12/29 12:38:16;;;;;;;1.95;0.82;;;8.40;52.30;;;;;;5006149;28;20049;-65
2020/12/29 12:40:41;;;;;;;2.10;0.80;;;8.40;52.40;;;;;;5007810;28;22517;-66
2020/12/29 12:43:07;;;;;;;2.80;0.90;;;8.40;53.00;;;;;;5011337;28;20026;-66
2020/12/29 12:45:33;;;;;;;2.47;0.70;;;8.40;53.60;;;;;;5010037;28;20031;-66
2020/12/29 12:48:01;;;;;;;2.58;0.70;;;8.40;53.80;;;;;;5008189;28;20110;-66
2020/12/29 12:50:27;;;;;;;3.13;0.75;;;8.30;53.50;;;;;;4992726;28;20253;-67
2020/12/29 12:52:53;;;;;;;4.18;1.40;;;8.40;53.70;;;;;;5010508;28;20085;-67
2020/12/29 12:55:19;;;;;;;3.85;1.13;;;8.40;53.80;;;;;;5014576;28;20320;-67